Time;durP1;ratioP1;P1;durP2;ratioP2;P2;SDS_P1;SDS_P2;PMS_P1;PMS_P2;Temp;Humidity;BMP_temperature;BMP_pressure;BME280_temperature;BME280_humidity;BME280_pressure;Samples;Min_cycle;Max_cycle;Signal;HPM_P1;HPM_P2
2024/01/25 00:00:41;;;;;;;;;7.33;5.00;;;;;-146.37;100.00;59337.28;4845906;29;45534;-82
2024/01/25 00:03:06;;;;;;;;;4.50;3.75;;;;;-146.37;100.00;59337.28;4828292;29;47450;-82
2024/01/25 00:05:32;;;;;;;;;10.00;5.50;;;;;-146.37;100.00;59337.28;4846288;29;45377;-82
2024/01/25 00:07:58;;;;;;;;;5.50;5.00;;;;;-146.37;100.00;59337.28;4830104;29;45490;-82
2024/01/25 00:10:23;;;;;;;;;8.75;5.00;;;;;-146.37;100.00;59337.28;4845299;29;45400;-82
2024/01/25 00:12:49;;;;;;;;;3.75;3.75;;;;;-146.37;100.00;59337.28;4846514;29;45998;-81
2024/01/25 00:15:15;;;;;;;;;7.75;7.00;;;;;-146.37;100.00;59337.28;4828315;29;45436;-82
2024/01/25 00:17:41;;;;;;;;;7.75;5.00;;;;;-146.37;100.00;59337.28;4828233;29;45481;-82
2024/01/25 00:20:09;;;;;;;;;10.00;5.75;;;;;-146.37;100.00;59337.28;4845108;29;45590;-82
2024/01/25 00:22:35;;;;;;;;;4.00;4.00;;;;;-146.37;100.00;59337.28;4845378;29;45658;-82
2024/01/25 00:25:00;;;;;;;;;8.00;8.00;;;;;-146.37;100.00;59337.28;4845251;29;45462;-82
2024/01/25 00:27:26;;;;;;;;;7.50;5.00;;;;;-146.37;100.00;59337.28;4846539;29;45332;-82
2024/01/25 00:29:51;;;;;;;;;7.00;5.00;;;;;-146.37;100.00;59337.28;4826794;29;45343;-81
2024/01/25 00:32:16;;;;;;;;;8.67;7.33;;;;;-146.37;100.00;59337.28;4824106;29;46983;-82
2024/01/25 00:34:42;;;;;;;;;0.00;0.00;;;;;-146.37;100.00;59337.28;4826424;29;45505;-82
2024/01/25 00:37:08;;;;;;;;;5.67;5.00;;;;;-146.37;100.00;59337.28;4826353;29;45529;-82
2024/01/25 00:39:35;;;;;;;;;4.67;4.67;;;;;-146.37;100.00;59337.28;4826507;29;45379;-81
2024/01/25 00:42:05;;;;;;;;;5.67;5.00;;;;;-146.37;100.00;59337.28;4826715;29;47583;-82
2024/01/25 00:44:32;;;;;;;;;5.33;5.33;;;;;-146.37;100.00;59337.28;4827003;29;45599;-81
2024/01/25 00:46:57;;;;;;;;;7.33;4.67;;;;;-146.37;100.00;59337.28;4826069;29;45415;-82
2024/01/25 00:49:23;;;;;;;;;4.67;4.00;;;;;-146.37;100.00;59337.28;4825886;29;45376;-83
2024/01/25 00:51:50;;;;;;;;;5.00;4.00;;;;;-146.37;100.00;59337.28;4826991;29;45580;-83
2024/01/25 00:54:16;;;;;;;;;5.00;5.00;;;;;-146.37;100.00;59337.28;4825342;29;45547;-83
2024/01/25 00:56:41;;;;;;;;;9.00;5.00;;;;;-146.37;100.00;59337.28;4826524;29;45463;-83
2024/01/25 00:59:08;;;;;;;;;4.67;4.67;;;;;-146.37;100.00;59337.28;4825319;29;45651;-83
2024/01/25 01:01:34;;;;;;;;;6.33;5.00;;;;;-146.37;100.00;59337.28;4824537;29;46807;-83
2024/01/25 01:04:00;;;;;;;;;6.33;6.00;;;;;-146.37;100.00;59337.28;4823687;29;45387;-83
2024/01/25 01:09:47;;;;;;;;;4.00;4.00;;;;;-146.37;100.00;59337.28;4826532;29;45504;-83
2024/01/25 01:12:16;;;;;;;;;5.33;3.33;;;;;-146.37;100.00;59337.28;4826222;29;45866;-83
2024/01/25 01:14:43;;;;;;;;;4.67;2.67;;;;;-146.37;100.00;59337.28;4826271;29;45655;-83
2024/01/25 01:17:10;;;;;;;;;5.67;5.00;;;;;-146.37;100.00;59337.28;4824137;29;45324;-84
2024/01/25 01:19:36;;;;;;;;;4.00;3.00;;;;;-146.37;100.00;59337.28;4823839;29;45770;-82
2024/01/25 01:22:01;;;;;;;;;3.00;3.00;;;;;-146.37;100.00;59337.28;4827729;29;45388;-82
2024/01/25 01:24:26;;;;;;;;;3.00;3.00;;;;;-146.37;100.00;59337.28;4826768;29;45507;-82
2024/01/25 01:26:52;;;;;;;;;3.25;3.25;;;;;-146.37;100.00;59337.28;4827911;29;45399;-82
2024/01/25 01:29:18;;;;;;;;;3.00;2.67;;;;;-146.37;100.00;59337.28;4827940;29;45491;-81
2024/01/25 01:31:43;;;;;;;;;5.00;4.00;;;;;-146.37;100.00;59337.28;4828023;29;48576;-82
2024/01/25 01:34:09;;;;;;;;;5.75;4.75;;;;;-146.37;100.00;59337.28;4826503;29;45539;-82
2024/01/25 01:36:34;;;;;;;;;9.00;5.00;;;;;-146.37;100.00;59337.28;4824725;29;45912;-82
2024/01/25 01:38:59;;;;;;;;;4.75;4.75;;;;;-146.37;100.00;59337.28;4825088;29;45399;-81
2024/01/25 01:41:25;;;;;;;;;3.75;3.75;;;;;-146.37;100.00;59337.28;4824191;29;48024;-82
2024/01/25 01:43:54;;;;;;;;;4.00;4.00;;;;;-146.37;100.00;59337.28;4824617;29;45443;-82
2024/01/25 01:46:28;;;;;;;;;5.67;4.00;;;;;-146.37;100.00;59337.28;4825553;29;45565;-82
2024/01/25 01:48:54;;;;;;;;;3.00;2.33;;;;;-146.37;100.00;59337.28;4824070;29;45733;-82
2024/01/25 01:51:20;;;;;;;;;5.33;4.00;;;;;-146.37;100.00;59337.28;4822536;29;47122;-81
2024/01/25 01:53:46;;;;;;;;;5.33;4.00;;;;;-146.37;100.00;59337.28;4823877;29;45452;-82
2024/01/25 01:56:12;;;;;;;;;2.00;2.00;;;;;-146.37;100.00;59337.28;4823923;29;45511;-81
2024/01/25 01:58:38;;;;;;;;;2.00;2.00;;;;;-146.37;100.00;59337.28;4824283;29;44936;-82
2024/01/25 02:01:04;;;;;;;;;4.25;3.50;;;;;-146.37;100.00;59337.28;4824786;29;46426;-82
2024/01/25 02:03:29;;;;;;;;;3.67;3.00;;;;;-146.37;100.00;59337.28;4824356;29;45503;-82
2024/01/25 02:05:55;;;;;;;;;8.00;6.33;;;;;-146.37;100.00;59337.28;4825424;29;45633;-82
2024/01/25 02:08:21;;;;;;;;;6.33;6.33;;;;;-146.37;100.00;59337.28;4827165;29;45528;-82
2024/01/25 02:10:46;;;;;;;;;3.25;3.00;;;;;-146.37;100.00;59337.28;4827083;29;48244;-82
2024/01/25 02:13:12;;;;;;;;;5.67;4.67;;;;;-146.37;100.00;59337.28;4828370;29;45408;-82
2024/01/25 02:15:37;;;;;;;;;8.67;4.00;;;;;-146.37;100.00;59337.28;4827118;29;45369;-81
2024/01/25 02:18:03;;;;;;;;;5.67;4.33;;;;;-146.37;100.00;59337.28;4827739;29;45358;-83
2024/01/25 02:20:28;;;;;;;;;7.00;5.00;;;;;-146.37;100.00;59337.28;4828163;29;46135;-83
2024/01/25 02:22:53;;;;;;;;;4.33;4.33;;;;;-146.37;100.00;59337.28;4828751;29;45460;-82
2024/01/25 02:25:19;;;;;;;;;4.00;4.00;;;;;-146.37;100.00;59337.28;4827962;29;45617;-82
2024/01/25 02:27:44;;;;;;;;;6.00;5.00;;;;;-146.37;100.00;59337.28;4825770;29;45727;-81
2024/01/25 02:30:10;;;;;;;;;5.00;4.00;;;;;-146.37;100.00;59337.28;4825473;29;46973;-81
2024/01/25 02:32:35;;;;;;;;;4.75;3.25;;;;;-146.37;100.00;59337.28;4839575;29;45498;-82
2024/01/25 02:35:01;;;;;;;;;5.00;4.75;;;;;-146.37;100.00;59337.28;4847435;29;45543;-82
2024/01/25 02:37:29;;;;;;;;;7.33;5.33;;;;;-146.37;100.00;59337.28;4830492;29;45545;-82
2024/01/25 02:39:55;;;;;;;;;5.25;5.25;;;;;-146.37;100.00;59337.28;4829326;29;47431;-82
2024/01/25 02:42:20;;;;;;;;;10.50;6.00;;;;;-146.37;100.00;59337.28;4846376;29;45319;-82
2024/01/25 02:44:46;;;;;;;;;9.00;7.33;;;;;-146.37;100.00;59337.28;4830322;29;45438;-82
2024/01/25 02:47:12;;;;;;;;;11.67;6.67;;;;;-146.37;100.00;59337.28;4830694;29;45463;-82
2024/01/25 02:49:37;;;;;;;;;8.33;7.00;;;;;-146.37;100.00;59337.28;4847209;29;46789;-82
2024/01/25 02:52:03;;;;;;;;;7.00;7.00;;;;;-146.37;100.00;59337.28;4829505;29;45731;-82
2024/01/25 02:54:28;;;;;;;;;4.67;4.67;;;;;-146.37;100.00;59337.28;4829616;29;45433;-82
2024/01/25 02:56:54;;;;;;;;;10.00;8.00;;;;;-146.37;100.00;59337.28;4830290;29;45587;-82
2024/01/25 02:59:19;;;;;;;;;9.33;7.00;;;;;-146.37;100.00;59337.28;4846721;29;45438;-82
2024/01/25 03:01:45;;;;;;;;;8.33;6.00;;;;;-146.37;100.00;59337.28;4829285;29;45353;-82
2024/01/25 03:04:10;;;;;;;;;9.00;5.00;;;;;-146.37;100.00;59337.28;4844742;29;45397;-84
2024/01/25 03:06:36;;;;;;;;;6.33;4.00;;;;;-146.37;100.00;59337.28;4829027;29;45631;-82
2024/01/25 03:09:04;;;;;;;;;5.00;3.00;;;;;-146.37;100.00;59337.28;4846019;29;45457;-82
2024/01/25 03:11:30;;;;;;;;;3.00;3.00;;;;;-146.37;100.00;59337.28;4829160;29;45503;-82
2024/01/25 03:13:55;;;;;;;;;2.33;2.33;;;;;-146.37;100.00;59337.28;4846452;29;45398;-82
2024/01/25 03:16:20;;;;;;;;;3.67;3.33;;;;;-146.37;100.00;59337.28;4830148;29;45377;-82
2024/01/25 03:18:46;;;;;;;;;2.00;1.00;;;;;-146.37;100.00;59337.28;4844794;29;45795;-82
2024/01/25 03:21:11;;;;;;;;;2.00;2.00;;;;;-146.37;100.00;59337.28;4828838;29;45380;-82
2024/01/25 03:23:37;;;;;;;;;5.33;4.33;;;;;-146.37;100.00;59337.28;4829196;29;45373;-82
2024/01/25 03:26:02;;;;;;;;;5.00;3.33;;;;;-146.37;100.00;59337.28;4845843;29;45368;-82
2024/01/25 03:28:27;;;;;;;;;10.33;4.00;;;;;-146.37;100.00;59337.28;4829517;29;48454;-82
2024/01/25 03:30:53;;;;;;;;;4.00;4.00;;;;;-146.37;100.00;59337.28;4846923;29;45727;-82
2024/01/25 03:33:18;;;;;;;;;8.25;4.00;;;;;-146.37;100.00;59337.28;4827562;29;45803;-82
2024/01/25 03:35:44;;;;;;;;;4.00;4.00;;;;;-146.37;100.00;59337.28;4826338;29;45867;-82
2024/01/25 03:38:09;;;;;;;;;4.00;3.75;;;;;-146.37;100.00;59337.28;4827128;29;46368;-82
2024/01/25 03:40:37;;;;;;;;;5.00;2.75;;;;;-146.37;100.00;59337.28;4828110;29;45347;-83
2024/01/25 03:43:02;;;;;;;;;6.25;4.25;;;;;-146.37;100.00;59337.28;4828247;29;45417;-83
2024/01/25 03:45:29;;;;;;;;;4.75;4.75;;;;;-146.37;100.00;59337.28;4826483;29;45487;-82
2024/01/25 03:48:01;;;;;;;;;3.00;3.00;;;;;-146.37;100.00;59337.28;4827958;29;45804;-83
2024/01/25 03:50:27;;;;;;;;;6.00;3.50;;;;;-146.37;100.00;59337.28;4827944;29;45474;-82
2024/01/25 03:52:52;;;;;;;;;6.33;5.00;;;;;-146.37;100.00;59337.28;4841327;29;45489;-82
2024/01/25 03:55:18;;;;;;;;;8.00;4.33;;;;;-146.37;100.00;59337.28;4827376;29;45451;-83
2024/01/25 03:57:44;;;;;;;;;7.25;5.50;;;;;-146.37;100.00;59337.28;4841051;29;47384;-82
2024/01/25 04:00:11;;;;;;;;;11.75;9.00;;;;;-146.37;100.00;59337.28;4841886;29;45499;-82
2024/01/25 04:02:36;;;;;;;;;4.00;4.00;;;;;-146.37;100.00;59337.28;4842102;29;45417;-83
2024/01/25 04:05:02;;;;;;;;;3.00;3.00;;;;;-146.37;100.00;59337.28;4827585;29;45373;-83
2024/01/25 04:07:29;;;;;;;;;7.67;5.00;;;;;-146.37;100.00;59337.28;4827697;29;48212;-83
2024/01/25 04:09:54;;;;;;;;;9.00;7.00;;;;;-146.37;100.00;59337.28;4828516;29;45763;-83
2024/01/25 04:12:19;;;;;;;;;6.50;5.00;;;;;-146.37;100.00;59337.28;4826220;29;45406;-83
2024/01/25 04:14:46;;;;;;;;;10.67;7.00;;;;;-146.37;100.00;59337.28;4840642;29;45408;-83
2024/01/25 04:17:12;;;;;;;;;7.33;6.33;;;;;-146.37;100.00;59337.28;4825678;29;48241;-83
2024/01/25 04:34:37;;;;;;;;;8.00;7.67;;;;;-146.37;100.00;59337.28;5719189;23;45729;-81
2024/01/25 04:37:03;;;;;;;;;9.67;9.67;;;;;-146.37;100.00;59337.28;4852376;29;45453;-83
2024/01/25 04:39:28;;;;;;;;;8.75;8.75;;;;;-146.37;100.00;59337.28;4869742;29;45438;-82
2024/01/25 04:41:54;;;;;;;;;10.00;8.67;;;;;-146.37;100.00;59337.28;4851603;29;44842;-82
2024/01/25 04:44:19;;;;;;;;;8.00;8.00;;;;;-146.37;100.00;59337.28;4868034;29;45191;-82
2024/01/25 04:46:44;;;;;;;;;5.00;5.00;;;;;-146.37;100.00;59337.28;4866407;29;44860;-82
2024/01/25 04:49:10;;;;;;;;;10.00;10.00;;;;;-146.37;100.00;59337.28;4865103;29;47029;-82
2024/01/25 04:51:36;;;;;;;;;10.00;10.00;;;;;-146.37;100.00;59337.28;4865271;29;45710;-82
2024/01/25 04:54:01;;;;;;;;;13.33;10.00;;;;;-146.37;100.00;59337.28;4866313;29;50193;-82
2024/01/25 04:56:27;;;;;;;;;9.00;7.33;;;;;-146.37;100.00;59337.28;4864999;29;45296;-82
2024/01/25 04:58:52;;;;;;;;;11.33;8.33;;;;;-146.37;100.00;59337.28;4866409;29;47250;-83
2024/01/25 05:01:17;;;;;;;;;9.67;9.00;;;;;-146.37;100.00;59337.28;4865871;29;45456;-82
2024/01/25 05:03:43;;;;;;;;;16.67;10.67;;;;;-146.37;100.00;59337.28;4866435;29;45382;-82
2024/01/25 05:06:08;;;;;;;;;17.00;13.33;;;;;-146.37;100.00;59337.28;4868349;29;45361;-82
2024/01/25 05:08:34;;;;;;;;;16.67;12.67;;;;;-146.37;100.00;59337.28;4868975;29;45332;-83
2024/01/25 05:11:00;;;;;;;;;15.00;13.33;;;;;-146.37;100.00;59337.28;4865855;29;45428;-83
2024/01/25 05:13:25;;;;;;;;;11.33;9.67;;;;;-146.37;100.00;59337.28;4868400;29;45315;-82
2024/01/25 05:15:50;;;;;;;;;12.67;12.00;;;;;-146.37;100.00;59337.28;4867775;29;45472;-83
2024/01/25 05:18:16;;;;;;;;;9.33;8.33;;;;;-146.37;100.00;59337.28;4850733;29;47583;-82
2024/01/25 05:20:43;;;;;;;;;20.67;16.67;;;;;-146.37;100.00;59337.28;4865606;29;45611;-82
2024/01/25 05:23:08;;;;;;;;;16.67;15.67;;;;;-146.37;100.00;59337.28;4866818;29;45272;-82
2024/01/25 05:25:33;;;;;;;;;15.33;12.67;;;;;-146.37;100.00;59337.28;4866089;29;44896;-82
2024/01/25 05:27:59;;;;;;;;;16.00;13.00;;;;;-146.37;100.00;59337.28;4868426;29;45143;-82
2024/01/25 05:30:25;;;;;;;;;22.67;17.00;;;;;-146.37;100.00;59337.28;4866997;29;45602;-82
2024/01/25 05:32:53;;;;;;;;;17.00;16.67;;;;;-146.37;100.00;59337.28;4847740;29;45374;-83
2024/01/25 05:35:19;;;;;;;;;18.33;15.33;;;;;-146.37;100.00;59337.28;4846177;29;45612;-83
2024/01/25 05:37:45;;;;;;;;;17.67;15.33;;;;;-146.37;100.00;59337.28;4846805;29;45247;-83
2024/01/25 05:40:11;;;;;;;;;19.00;17.67;;;;;-146.37;100.00;59337.28;4846864;29;45474;-83
2024/01/25 05:42:37;;;;;;;;;18.67;17.67;;;;;-146.37;100.00;59337.28;4865796;29;45766;-83
2024/01/25 05:45:03;;;;;;;;;20.67;16.67;;;;;-146.37;100.00;59337.28;4865282;29;45423;-83
2024/01/25 05:47:29;;;;;;;;;17.00;16.00;;;;;-146.37;100.00;59337.28;4853416;29;45411;-83
2024/01/25 05:49:55;;;;;;;;;18.00;18.00;;;;;-146.37;100.00;59337.28;4848467;29;45455;-83
2024/01/25 05:52:21;;;;;;;;;26.00;22.33;;;;;-146.37;100.00;59337.28;4863460;29;45409;-83
2024/01/25 05:54:46;;;;;;;;;28.00;22.67;;;;;-146.37;100.00;59337.28;4849849;29;44812;-83
2024/01/25 05:57:12;;;;;;;;;25.67;21.00;;;;;-146.37;100.00;59337.28;4863872;29;47849;-82
2024/01/25 05:59:38;;;;;;;;;24.33;21.00;;;;;-146.37;100.00;59337.28;4848822;29;45247;-83
2024/01/25 06:02:04;;;;;;;;;24.00;21.67;;;;;-146.37;100.00;59337.28;4849465;29;45608;-83
2024/01/25 06:04:39;;;;;;;;;22.33;22.00;;;;;-146.37;100.00;59337.28;4866840;29;45695;-83
2024/01/25 06:07:04;;;;;;;;;24.67;21.67;;;;;-146.37;100.00;59337.28;4867223;29;47427;-83
2024/01/25 06:09:31;;;;;;;;;22.67;17.00;;;;;-146.37;100.00;59337.28;4852192;29;45845;-82
2024/01/25 06:11:57;;;;;;;;;30.67;23.00;;;;;-146.37;100.00;59337.28;4851990;29;45365;-82
2024/01/25 06:14:22;;;;;;;;;23.67;18.33;;;;;-146.37;100.00;59337.28;4864388;29;45609;-82
2024/01/25 06:16:48;;;;;;;;;24.00;19.33;;;;;-146.37;100.00;59337.28;4864660;29;47980;-82
2024/01/25 06:19:13;;;;;;;;;31.33;24.00;;;;;-146.37;100.00;59337.28;4850499;29;45605;-83
2024/01/25 06:21:38;;;;;;;;;26.67;21.67;;;;;-146.37;100.00;59337.28;4850255;29;44799;-83
2024/01/25 06:24:05;;;;;;;;;24.67;20.00;;;;;-146.37;100.00;59337.28;4852015;29;45420;-82
2024/01/25 06:26:30;;;;;;;;;24.33;18.33;;;;;-146.37;100.00;59337.28;4848510;29;48556;-82
2024/01/25 06:28:59;;;;;;;;;27.33;24.00;;;;;-146.37;100.00;59337.28;4851726;29;44921;-82
2024/01/25 06:31:25;;;;;;;;;24.00;22.00;;;;;-146.37;100.00;59337.28;4864034;29;45385;-84
2024/01/25 06:33:52;;;;;;;;;24.33;22.67;;;;;-146.37;100.00;59337.28;4864073;29;45390;-83
2024/01/25 06:36:24;;;;;;;;;25.00;22.33;;;;;-146.37;100.00;59337.28;4863596;29;47457;-83
2024/01/25 06:38:49;;;;;;;;;24.00;20.33;;;;;-146.37;100.00;59337.28;4863946;29;45789;-83
2024/01/25 06:41:16;;;;;;;;;19.33;19.33;;;;;-146.37;100.00;59337.28;4852587;29;45277;-82
2024/01/25 06:43:41;;;;;;;;;24.00;21.33;;;;;-146.37;100.00;59337.28;4850985;29;45702;-82
2024/01/25 06:46:10;;;;;;;;;23.00;23.00;;;;;-146.37;100.00;59337.28;4852512;29;45519;-82
2024/01/25 06:48:35;;;;;;;;;24.33;24.00;;;;;-146.37;100.00;59337.28;4851653;29;44825;-83
2024/01/25 06:51:01;;;;;;;;;24.67;22.00;;;;;-146.37;100.00;59337.28;4866459;29;44927;-82
2024/01/25 06:53:27;;;;;;;;;27.67;21.00;;;;;-146.37;100.00;59337.28;4850263;29;44812;-82
2024/01/25 06:55:53;;;;;;;;;22.00;16.00;;;;;-146.37;100.00;59337.28;4853592;29;47436;-82
2024/01/25 06:58:20;;;;;;;;;26.00;22.33;;;;;-146.37;100.00;59337.28;4862790;29;45418;-84
2024/01/25 07:00:46;;;;;;;;;32.67;23.67;;;;;-146.37;100.00;59337.28;4861868;29;45451;-84
2024/01/25 07:03:12;;;;;;;;;27.67;21.33;;;;;-146.37;100.00;59337.28;4845693;29;45471;-82
2024/01/25 07:05:38;;;;;;;;;25.33;23.33;;;;;-146.37;100.00;59337.28;4845427;29;46240;-82
2024/01/25 07:08:04;;;;;;;;;25.00;22.33;;;;;-146.37;100.00;59337.28;4844060;29;45330;-82
2024/01/25 07:10:30;;;;;;;;;21.00;18.00;;;;;-146.37;100.00;59337.28;4862477;29;45419;-83
2024/01/25 07:12:55;;;;;;;;;27.33;22.00;;;;;-146.37;100.00;59337.28;4845675;29;45333;-82
2024/01/25 07:15:21;;;;;;;;;28.33;19.33;;;;;-146.37;100.00;59337.28;4845962;29;45531;-82
2024/01/25 07:17:46;;;;;;;;;25.00;19.33;;;;;-146.37;100.00;59337.28;4857779;29;44805;-82
2024/01/25 07:20:12;;;;;;;;;22.33;21.33;;;;;-146.37;100.00;59337.28;4880855;29;45374;-82
2024/01/25 07:22:38;;;;;;;;;21.00;19.67;;;;;-146.37;100.00;59337.28;4864380;29;45026;-82
2024/01/25 07:25:04;;;;;;;;;28.00;24.00;;;;;-146.37;100.00;59337.28;4864122;29;45594;-82
2024/01/25 07:27:29;;;;;;;;;23.00;18.33;;;;;-146.37;100.00;59337.28;4864685;29;45754;-83
2024/01/25 07:30:01;;;;;;;;;27.67;23.00;;;;;-146.37;100.00;59337.28;4864178;29;45378;-83
2024/01/25 07:32:27;;;;;;;;;25.00;20.33;;;;;-146.37;100.00;59337.28;4879278;29;45474;-82
2024/01/25 07:34:53;;;;;;;;;26.33;21.00;;;;;-146.37;100.00;59337.28;4873364;29;48042;-82
2024/01/25 07:37:19;;;;;;;;;24.67;18.00;;;;;-146.37;100.00;59337.28;4862918;29;45540;-82
2024/01/25 07:39:45;;;;;;;;;20.33;18.33;;;;;-146.37;100.00;59337.28;4846712;29;45413;-82
2024/01/25 07:42:12;;;;;;;;;24.33;19.00;;;;;-146.37;100.00;59337.28;4864449;29;45514;-83
2024/01/25 07:44:38;;;;;;;;;24.67;18.33;;;;;-146.37;100.00;59337.28;4864670;29;45439;-82
2024/01/25 07:47:04;;;;;;;;;20.67;19.67;;;;;-146.37;100.00;59337.28;4881770;29;45405;-83
2024/01/25 07:49:30;;;;;;;;;27.33;23.00;;;;;-146.37;100.00;59337.28;4885129;29;44825;-82
2024/01/25 07:51:56;;;;;;;;;23.00;23.00;;;;;-146.37;100.00;59337.28;4884435;29;45878;-83
2024/01/25 07:54:24;;;;;;;;;24.67;23.33;;;;;-146.37;100.00;59337.28;4870242;29;46992;-81
2024/01/25 07:56:50;;;;;;;;;34.00;26.33;;;;;-146.37;100.00;59337.28;4886383;29;45456;-83
2024/01/25 07:59:15;;;;;;;;;28.67;23.67;;;;;-146.37;100.00;59337.28;4882754;29;45441;-81
2024/01/25 08:01:41;;;;;;;;;27.67;25.67;;;;;-146.37;100.00;59337.28;4873803;29;44975;-81
2024/01/25 08:04:06;;;;;;;;;21.00;18.67;;;;;-146.37;100.00;59337.28;4879572;29;54582;-81
2024/01/25 08:06:32;;;;;;;;;26.67;24.67;;;;;-146.37;100.00;59337.28;4881364;29;45552;-82
2024/01/25 08:08:58;;;;;;;;;24.67;22.33;;;;;-146.37;100.00;59337.28;4880952;29;45455;-81
2024/01/25 08:14:45;;;;;;;;;20.00;20.00;;;;;-146.37;100.00;59337.28;4879181;29;45514;-81
2024/01/25 08:17:10;;;;;;;;;25.67;23.00;;;;;-146.37;100.00;59337.28;4865777;29;45699;-81
2024/01/25 08:19:36;;;;;;;;;25.00;23.33;;;;;-146.37;100.00;59337.28;4864071;29;45530;-80
2024/01/25 08:22:01;;;;;;;;;21.67;19.00;;;;;-146.37;100.00;59337.28;4867771;29;45416;-81
2024/01/25 08:24:27;;;;;;;;;23.33;20.67;;;;;-146.37;100.00;59337.28;4856282;29;47122;-81
2024/01/25 08:26:53;;;;;;;;;21.00;18.33;;;;;-146.37;100.00;59337.28;4847853;29;45152;-80
2024/01/25 08:29:18;;;;;;;;;26.33;24.00;;;;;-146.37;100.00;59337.28;4869814;29;45498;-79
2024/01/25 08:31:46;;;;;;;;;24.00;20.33;;;;;-146.37;100.00;59337.28;4865836;29;46343;-80
2024/01/25 08:34:11;;;;;;;;;21.67;18.67;;;;;-146.37;100.00;59337.28;4880599;28;47202;-79
2024/01/25 08:36:37;;;;;;;;;19.00;16.33;;;;;-146.37;100.00;59337.28;4860253;29;45885;-80
2024/01/25 08:39:04;;;;;;;;;21.67;20.00;;;;;-146.37;100.00;59337.28;4884057;29;45498;-79
2024/01/25 08:41:29;;;;;;;;;19.33;19.00;;;;;-146.37;100.00;59337.28;4896565;29;45592;-79
2024/01/25 08:43:54;;;;;;;;;23.00;20.33;;;;;-146.37;100.00;59337.28;4866035;29;45845;-79
2024/01/25 08:46:20;;;;;;;;;22.33;16.00;;;;;-146.37;100.00;59337.28;4862830;29;45008;-79
2024/01/25 08:48:45;;;;;;;;;18.67;15.67;;;;;-146.37;100.00;59337.28;4875932;29;45429;-79
2024/01/25 08:51:48;;;;;;;;;17.00;16.00;;;;;-146.37;100.00;59337.28;4865577;29;45731;-79
2024/01/25 08:54:14;;;;;;;;;22.00;18.67;;;;;-146.37;100.00;59337.28;4862435;29;46888;-81
2024/01/25 08:56:39;;;;;;;;;17.00;14.33;;;;;-146.37;100.00;59337.28;4860400;29;45523;-80
2024/01/25 08:59:05;;;;;;;;;18.33;18.00;;;;;-146.37;100.00;59337.28;4874277;28;45473;-81
2024/01/25 09:01:30;;;;;;;;;19.67;16.67;;;;;-146.37;100.00;59337.28;4866843;29;45609;-83
2024/01/25 09:04:00;;;;;;;;;14.33;13.33;;;;;-146.37;100.00;59337.28;4860184;29;46971;-79
2024/01/25 09:06:30;;;;;;;;;19.33;16.00;;;;;-146.37;100.00;59337.28;4863392;29;45485;-80
2024/01/25 09:08:55;;;;;;;;;16.33;13.67;;;;;-146.37;100.00;59337.28;4862198;29;45427;-82
2024/01/25 09:11:24;;;;;;;;;10.67;10.67;;;;;-146.37;100.00;59337.28;4860965;29;45423;-80
2024/01/25 09:13:49;;;;;;;;;17.50;12.00;;;;;-146.37;100.00;59337.28;4876089;29;47647;-83
2024/01/25 09:16:15;;;;;;;;;17.00;14.33;;;;;-146.37;100.00;59337.28;4863225;29;45556;-79
2024/01/25 09:18:41;;;;;;;;;10.67;10.33;;;;;-146.37;100.00;59337.28;4866153;28;45548;-80
2024/01/25 09:21:06;;;;;;;;;17.00;13.00;;;;;-146.37;100.00;59337.28;4876533;29;45657;-79
2024/01/25 09:26:55;;;;;;;;;19.00;17.00;;;;;-146.37;100.00;59337.28;4871088;29;44874;-82
2024/01/25 09:29:20;;;;;;;;;17.67;17.67;;;;;-146.37;100.00;59337.28;4879920;29;45428;-79
2024/01/25 09:31:46;;;;;;;;;15.67;15.00;;;;;-146.37;100.00;59337.28;4869674;29;45553;-78
2024/01/25 09:34:11;;;;;;;;;17.33;17.33;;;;;-146.37;100.00;59337.28;4864228;29;45656;-79
2024/01/25 09:36:36;;;;;;;;;19.00;16.67;;;;;-146.37;100.00;59337.28;4865320;29;45408;-79
2024/01/25 09:39:08;;;;;;;;;5.00;4.00;;;;;-146.37;100.00;59337.28;4868371;29;44949;-80
2024/01/25 09:41:33;;;;;;;;;17.33;14.00;;;;;-146.37;100.00;59337.28;4869989;29;45447;-81
2024/01/25 09:44:00;;;;;;;;;13.33;10.33;;;;;-146.37;100.00;59337.28;4879434;29;48441;-81
2024/01/25 09:46:26;;;;;;;;;20.33;19.00;;;;;-146.37;100.00;59337.28;4882275;28;45417;-80
2024/01/25 09:48:51;;;;;;;;;16.67;15.00;;;;;-146.37;100.00;59337.28;4878673;29;45477;-79
2024/01/25 09:51:17;;;;;;;;;18.67;18.67;;;;;-146.37;100.00;59337.28;4864717;29;44910;-80
2024/01/25 09:53:45;;;;;;;;;14.33;13.00;;;;;-146.37;100.00;59337.28;4867869;29;47416;-80
2024/01/25 09:56:18;;;;;;;;;13.00;13.00;;;;;-146.37;100.00;59337.28;4885017;29;46115;-82
2024/01/25 09:58:45;;;;;;;;;13.67;12.33;;;;;-146.37;100.00;59337.28;4871059;29;44860;-83
2024/01/25 10:01:15;;;;;;;;;15.33;14.00;;;;;-146.37;100.00;59337.28;4869133;29;45485;-83
2024/01/25 10:03:56;;;;;;;;;14.00;12.33;;;;;-146.37;100.00;59337.28;4883294;28;48002;-81
2024/01/25 10:06:22;;;;;;;;;16.00;16.00;;;;;-146.37;100.00;59337.28;4894309;29;45476;-79
2024/01/25 10:08:48;;;;;;;;;15.67;11.33;;;;;-146.37;100.00;59337.28;4867182;29;46472;-78
2024/01/25 10:11:19;;;;;;;;;17.00;16.00;;;;;-146.37;100.00;59337.28;4889106;28;44934;-80
2024/01/25 10:14:03;;;;;;;;;15.33;14.67;;;;;-146.37;100.00;59337.28;4885362;28;47383;-82
2024/01/25 10:16:32;;;;;;;;;15.67;13.33;;;;;-146.37;100.00;59337.28;4870408;29;45551;-81
2024/01/25 10:19:00;;;;;;;;;16.00;13.00;;;;;-146.37;100.00;59337.28;4889036;29;45554;-81
2024/01/25 10:21:27;;;;;;;;;14.67;13.33;;;;;-146.37;100.00;59337.28;4865134;29;45503;-81
2024/01/25 10:23:58;;;;;;;;;20.67;17.33;;;;;-146.37;100.00;59337.28;4868216;29;45393;-82
2024/01/25 10:26:32;;;;;;;;;19.00;18.00;;;;;-146.37;100.00;59337.28;4872448;29;45537;-80
2024/01/25 10:29:00;;;;;;;;;16.67;16.00;;;;;-146.37;100.00;59337.28;4865812;29;45352;-81
2024/01/25 10:31:27;;;;;;;;;19.33;18.00;;;;;-146.37;100.00;59337.28;4867856;29;45776;-84
2024/01/25 10:33:56;;;;;;;;;14.33;13.67;;;;;-146.37;100.00;59337.28;4868411;29;47048;-82
2024/01/25 10:36:26;;;;;;;;;17.67;13.33;;;;;-146.37;100.00;59337.28;4864987;29;45223;-83
2024/01/25 10:38:55;;;;;;;;;20.00;17.00;;;;;-146.37;100.00;59337.28;4876106;29;45168;-84
2024/01/25 10:41:27;;;;;;;;;10.00;9.25;;;;;-146.37;100.00;59337.28;4874267;29;45910;-82
2024/01/25 10:43:52;;;;;;;;;15.75;13.00;;;;;-146.37;100.00;59337.28;4873036;29;45357;-81
2024/01/25 10:46:23;;;;;;;;;12.00;10.75;;;;;-146.37;100.00;59337.28;4876370;29;44739;-82
2024/01/25 10:48:52;;;;;;;;;10.75;10.75;;;;;-146.37;100.00;59337.28;4867301;29;45466;-83
2024/01/25 10:51:18;;;;;;;;;9.75;6.00;;;;;-146.37;100.00;59337.28;4871382;28;45501;-82
2024/01/25 10:53:45;;;;;;;;;9.50;9.00;;;;;-146.37;100.00;59337.28;4881797;29;47311;-83
2024/01/25 10:56:11;;;;;;;;;8.00;8.00;;;;;-146.37;100.00;59337.28;4885568;29;45519;-82
2024/01/25 10:58:41;;;;;;;;;8.50;7.00;;;;;-146.37;100.00;59337.28;4867472;29;45831;-83
2024/01/25 11:01:10;;;;;;;;;10.00;10.00;;;;;-146.37;100.00;59337.28;4870026;29;45588;-82
2024/01/25 11:03:45;;;;;;;;;7.00;7.00;;;;;-146.37;100.00;59337.28;4878020;29;46940;-83
2024/01/25 11:06:23;;;;;;;;;6.00;3.25;;;;;-146.37;100.00;59337.28;4871500;29;45441;-82
2024/01/25 11:08:48;;;;;;;;;10.25;8.75;;;;;-146.37;100.00;59337.28;4872450;29;45094;-81
2024/01/25 11:11:15;;;;;;;;;7.50;6.00;;;;;-146.37;100.00;59337.28;4864113;29;44850;-82
2024/01/25 11:13:42;;;;;;;;;6.25;5.75;;;;;-146.37;100.00;59337.28;4879445;29;47056;-83
2024/01/25 11:16:28;;;;;;;;;7.75;7.00;;;;;-146.37;100.00;59337.28;4867997;29;45059;-83
2024/01/25 11:20:04;;;;;;;;;6.00;5.50;;;;;-146.37;100.00;59337.28;4864186;29;45680;-83
2024/01/25 11:22:37;;;;;;;;;7.50;6.25;;;;;-146.37;100.00;59337.28;4868939;29;45476;-83
2024/01/25 11:25:20;;;;;;;;;8.50;7.50;;;;;-146.37;100.00;59337.28;4868251;29;45615;-82